»·PEaware :: N17SU L88-KSBP

N17SU :: L88-KSBP

FLIGHT INFORMATION

Flight Status: Arrived
Operator: Privately registered:
United States
More flights under this callsign
Pilot: Marc Domini C. (45719)
Aircraft: CIRRUS SR-20
(SR20)
More flights by this aircraft type
Origin: L88 New Cuyama
United States
Destination: KSBP San Luis Co Regl
United States
More flights between these airports :: More routes between these airports
Route:
File this flight plan on PilotEdge
Remarks:
Altitude:
(Current/Filed)
6,500ft
Speed:
(Current/Filed)
150kts
Departed: 01-Dec-23 01:59 PM
Arrived: 01-Dec-23 02:50 PM
Distance/Time
Traveled:
13nm/0:50
Distance/Time
To Go:
Arrived

Flight Plot

Page will automatically refresh every two minutes.


Map Options




Map Legend


Flown Route
Filed Route
Departure Airport
Arrival Airport
Navaid (VOR, NDB)
Fix

Horizontal Profiles

Position Reports

Time Latitude Longitude Heading Altitude Ground
Speed
01-Dec-23 13:57 34.937659 -119.679979 309 2198ft 3kts
01-Dec-23 13:58 34.947415 -119.704176 288 2729ft 97kts
01-Dec-23 13:59 34.956920 -119.734137 288 3816ft 94kts
01-Dec-23 14:00 34.966510 -119.764358 288 4785ft 100kts
01-Dec-23 14:01 34.976586 -119.796388 288 5711ft 102kts
01-Dec-23 14:02 34.986883 -119.829192 288 6503ft 112kts
01-Dec-23 14:03 34.999637 -119.871008 289 6531ft 142kts
01-Dec-23 14:04 35.013139 -119.915738 289 6497ft 138kts
01-Dec-23 14:05 35.026346 -119.959380 289 6500ft 136kts
01-Dec-23 14:06 35.039112 -120.002915 276 6495ft 136kts
01-Dec-23 14:07 35.043376 -120.049298 275 6375ft 144kts
01-Dec-23 14:08 35.047625 -120.096972 275 6341ft 138kts
01-Dec-23 14:09 35.051757 -120.143081 275 6344ft 136kts
01-Dec-23 14:10 35.057034 -120.189112 277 6345ft 136kts
01-Dec-23 14:11 35.062509 -120.235014 277 6345ft 136kts
01-Dec-23 14:12 35.071378 -120.281880 287 6048ft 148kts
01-Dec-23 14:13 35.084550 -120.330791 287 5522ft 154kts
01-Dec-23 14:14 35.099704 -120.380553 293 4855ft 158kts
01-Dec-23 14:15 35.119944 -120.428925 297 4053ft 160kts
01-Dec-23 14:16 35.139288 -120.471695 298 3112ft 125kts
01-Dec-23 14:17 35.154291 -120.505574 287 2168ft 104kts
01-Dec-23 14:18 35.167799 -120.542430 308 2242ft 131kts
01-Dec-23 14:19 35.194626 -120.528645 92 2197ft 135kts
01-Dec-23 14:20 35.165256 -120.505122 158 2216ft 134kts
01-Dec-23 14:22 34.937651 -119.679966 296 2198ft 0kts
01-Dec-23 14:23 34.937651 -119.679966 296 2198ft 0kts
01-Dec-23 14:24 34.937954 -119.680634 296 2195ft 32kts
01-Dec-23 14:25 34.948787 -119.707535 293 2666ft 97kts
01-Dec-23 14:26 34.960865 -119.737600 293 3470ft 100kts
01-Dec-23 14:27 34.973156 -119.768203 293 4232ft 101kts
01-Dec-23 14:28 34.984132 -119.799646 268 4936ft 102kts
01-Dec-23 14:29 34.988769 -119.833795 282 5600ft 103kts
01-Dec-23 14:31 34.997387 -119.867338 287 6221ft 104kts
01-Dec-23 14:32 35.008217 -119.903687 288 6386ft 123kts
01-Dec-23 14:33 35.020669 -119.943806 289 6343ft 126kts
01-Dec-23 14:34 35.033157 -119.983760 289 6344ft 126kts
01-Dec-23 14:35 35.045676 -120.023792 289 6344ft 126kts
01-Dec-23 14:36 35.058151 -120.063722 289 6344ft 126kts
01-Dec-23 14:37 35.070652 -120.103670 289 6344ft 126kts
01-Dec-23 14:38 35.083183 -120.143799 289 6330ft 127kts
01-Dec-23 14:39 35.093332 -120.189814 283 5687ft 160kts
01-Dec-23 14:40 35.104380 -120.243199 283 5093ft 161kts
01-Dec-23 14:41 35.115679 -120.295539 287 4484ft 159kts
01-Dec-23 14:42 35.129434 -120.346734 287 3882ft 158kts
01-Dec-23 14:43 35.143213 -120.397917 287 3279ft 158kts
01-Dec-23 14:44 35.159242 -120.446749 294 2644ft 149kts
01-Dec-23 14:45 35.176023 -120.490397 294 1991ft 137kts
01-Dec-23 14:46 35.194372 -120.532767 298 1350ft 154kts
01-Dec-23 14:47 35.206277 -120.574651 286 1509ft 127kts
01-Dec-23 14:48 35.218490 -120.607512 301 761ft 87kts
01-Dec-23 14:49 35.233142 -120.633656 303 231ft 69kts
01-Dec-23 14:50 35.238989 -120.646089 279 168ft 24kts
01-Dec-23 14:54 35.238516 -120.647215 78 164ft 0kts
01-Dec-23 14:55 34.937651 -119.679966 296 2198ft 0kts
01-Dec-23 14:56 34.937652 -119.679966 296 2198ft 0kts
01-Dec-23 14:56 34.943644 -119.695763 289 2452ft 97kts
01-Dec-23 14:57 34.953271 -119.720894 277 3375ft 87kts
01-Dec-23 14:59 34.963985 -119.758218 286 4414ft 104kts
01-Dec-23 15:00 34.974027 -119.790750 282 5352ft 109kts
01-Dec-23 15:00 34.980622 -119.819271 291 6141ft 105kts
01-Dec-23 15:01 34.994068 -119.854110 292 6369ft 149kts
01-Dec-23 15:02 35.007644 -119.892277 297 6116ft 159kts
01-Dec-23 15:03 35.026628 -119.937122 268 6240ft 142kts

Navigation Log

Ident Type
Flight plan parsing failed, navigation log unavailable